sensor_id;sensor_type;location;lat;lon;timestamp;P1;durP1;ratioP1;P2;durP2;ratioP2
18499;SDS011;9379;52.134;11.576;2023-04-01T00:02:25;2.45;;;0.80;;
18499;SDS011;9379;52.134;11.576;2023-04-01T00:04:52;3.65;;;1.13;;
18499;SDS011;9379;52.134;11.576;2023-04-01T00:07:18;3.70;;;1.40;;
18499;SDS011;9379;52.134;11.576;2023-04-01T00:09:47;4.22;;;1.38;;
18499;SDS011;9379;52.134;11.576;2023-04-01T00:12:14;1.35;;;1.20;;
18499;SDS011;9379;52.134;11.576;2023-04-01T00:14:41;1.88;;;1.63;;
18499;SDS011;9379;52.134;11.576;2023-04-01T00:17:08;0.98;;;0.98;;
18499;SDS011;9379;52.134;11.576;2023-04-01T00:19:35;1.35;;;1.25;;
18499;SDS011;9379;52.134;11.576;2023-04-01T00:22:02;1.88;;;1.27;;
18499;SDS011;9379;52.134;11.576;2023-04-01T00:24:29;3.70;;;1.13;;
18499;SDS011;9379;52.134;11.576;2023-04-01T00:26:57;1.65;;;1.52;;
18499;SDS011;9379;52.134;11.576;2023-04-01T00:29:29;1.58;;;1.10;;
18499;SDS011;9379;52.134;11.576;2023-04-01T00:31:56;0.85;;;0.82;;
18499;SDS011;9379;52.134;11.576;2023-04-01T00:34:23;1.58;;;0.80;;
18499;SDS011;9379;52.134;11.576;2023-04-01T00:36:50;2.35;;;1.10;;
18499;SDS011;9379;52.134;11.576;2023-04-01T00:39:19;1.00;;;0.88;;
18499;SDS011;9379;52.134;11.576;2023-04-01T00:41:46;1.15;;;0.82;;
18499;SDS011;9379;52.134;11.576;2023-04-01T00:44:16;1.05;;;0.95;;
18499;SDS011;9379;52.134;11.576;2023-04-01T00:46:45;3.60;;;1.23;;
18499;SDS011;9379;52.134;11.576;2023-04-01T00:49:13;1.50;;;1.40;;
18499;SDS011;9379;52.134;11.576;2023-04-01T00:51:41;1.33;;;1.23;;
18499;SDS011;9379;52.134;11.576;2023-04-01T00:54:12;1.73;;;1.15;;
18499;SDS011;9379;52.134;11.576;2023-04-01T00:56:41;5.60;;;2.83;;
18499;SDS011;9379;52.134;11.576;2023-04-01T00:59:17;2.90;;;1.83;;
18499;SDS011;9379;52.134;11.576;2023-04-01T01:01:47;3.28;;;1.80;;
18499;SDS011;9379;52.134;11.576;2023-04-01T01:04:21;2.83;;;1.67;;
18499;SDS011;9379;52.134;11.576;2023-04-01T01:06:51;1.02;;;1.02;;
18499;SDS011;9379;52.134;11.576;2023-04-01T01:09:30;3.38;;;2.00;;
18499;SDS011;9379;52.134;11.576;2023-04-01T01:12:07;1.77;;;1.45;;
18499;SDS011;9379;52.134;11.576;2023-04-01T01:14:44;1.60;;;1.48;;
18499;SDS011;9379;52.134;11.576;2023-04-01T01:17:19;4.22;;;1.52;;
18499;SDS011;9379;52.134;11.576;2023-04-01T01:20:03;2.35;;;1.83;;
18499;SDS011;9379;52.134;11.576;2023-04-01T01:22:50;8.90;;;2.30;;
18499;SDS011;9379;52.134;11.576;2023-04-01T01:25:26;5.32;;;1.40;;
18499;SDS011;9379;52.134;11.576;2023-04-01T01:28:03;11.55;;;1.52;;
18499;SDS011;9379;52.134;11.576;2023-04-01T01:30:56;1.15;;;1.10;;
18499;SDS011;9379;52.134;11.576;2023-04-01T01:33:33;1.52;;;1.35;;
18499;SDS011;9379;52.134;11.576;2023-04-01T01:36:06;1.55;;;1.10;;
18499;SDS011;9379;52.134;11.576;2023-04-01T01:38:38;3.60;;;1.63;;
18499;SDS011;9379;52.134;11.576;2023-04-01T01:41:07;6.13;;;1.65;;
18499;SDS011;9379;52.134;11.576;2023-04-01T01:43:36;1.13;;;1.02;;
18499;SDS011;9379;52.134;11.576;2023-04-01T01:46:07;2.47;;;1.20;;
18499;SDS011;9379;52.134;11.576;2023-04-01T01:48:37;1.38;;;1.27;;
18499;SDS011;9379;52.134;11.576;2023-04-01T01:51:07;3.33;;;1.55;;
18499;SDS011;9379;52.134;11.576;2023-04-01T01:53:35;3.25;;;2.17;;
18499;SDS011;9379;52.134;11.576;2023-04-01T01:56:02;2.42;;;1.73;;
18499;SDS011;9379;52.134;11.576;2023-04-01T01:58:30;2.10;;;1.92;;
18499;SDS011;9379;52.134;11.576;2023-04-01T02:01:01;1.08;;;1.00;;
18499;SDS011;9379;52.134;11.576;2023-04-01T02:03:33;2.03;;;1.60;;
18499;SDS011;9379;52.134;11.576;2023-04-01T02:06:03;2.75;;;1.13;;
18499;SDS011;9379;52.134;11.576;2023-04-01T02:08:34;2.40;;;1.23;;
18499;SDS011;9379;52.134;11.576;2023-04-01T02:11:05;3.70;;;1.38;;
18499;SDS011;9379;52.134;11.576;2023-04-01T02:13:34;0.95;;;0.95;;
18499;SDS011;9379;52.134;11.576;2023-04-01T02:16:11;4.45;;;1.52;;
18499;SDS011;9379;52.134;11.576;2023-04-01T02:18:41;2.45;;;1.92;;
18499;SDS011;9379;52.134;11.576;2023-04-01T02:21:11;0.57;;;0.57;;
18499;SDS011;9379;52.134;11.576;2023-04-01T02:23:41;3.25;;;1.55;;
18499;SDS011;9379;52.134;11.576;2023-04-01T02:26:08;1.63;;;1.30;;
18499;SDS011;9379;52.134;11.576;2023-04-01T02:28:37;1.95;;;1.75;;
18499;SDS011;9379;52.134;11.576;2023-04-01T02:31:07;3.63;;;2.05;;
18499;SDS011;9379;52.134;11.576;2023-04-01T02:33:35;3.17;;;1.77;;
18499;SDS011;9379;52.134;11.576;2023-04-01T02:36:05;6.53;;;1.95;;
18499;SDS011;9379;52.134;11.576;2023-04-01T02:38:32;4.43;;;1.85;;
18499;SDS011;9379;52.134;11.576;2023-04-01T02:41:03;2.58;;;1.55;;
18499;SDS011;9379;52.134;11.576;2023-04-01T02:43:31;1.40;;;1.30;;
18499;SDS011;9379;52.134;11.576;2023-04-01T02:45:58;2.35;;;1.50;;
18499;SDS011;9379;52.134;11.576;2023-04-01T02:48:26;1.60;;;1.50;;
18499;SDS011;9379;52.134;11.576;2023-04-01T02:50:53;4.72;;;2.38;;
18499;SDS011;9379;52.134;11.576;2023-04-01T02:53:21;4.93;;;2.92;;
18499;SDS011;9379;52.134;11.576;2023-04-01T02:55:48;1.40;;;1.23;;
18499;SDS011;9379;52.134;11.576;2023-04-01T02:58:20;2.83;;;2.35;;
18499;SDS011;9379;52.134;11.576;2023-04-01T03:00:47;1.70;;;1.60;;
18499;SDS011;9379;52.134;11.576;2023-04-01T03:03:14;3.25;;;2.33;;
18499;SDS011;9379;52.134;11.576;2023-04-01T03:05:40;3.03;;;2.15;;
18499;SDS011;9379;52.134;11.576;2023-04-01T03:08:07;4.38;;;2.75;;
18499;SDS011;9379;52.134;11.576;2023-04-01T03:10:35;2.72;;;1.63;;
18499;SDS011;9379;52.134;11.576;2023-04-01T03:13:02;2.72;;;2.50;;
18499;SDS011;9379;52.134;11.576;2023-04-01T03:15:30;1.60;;;1.50;;
18499;SDS011;9379;52.134;11.576;2023-04-01T03:17:57;1.80;;;1.70;;
18499;SDS011;9379;52.134;11.576;2023-04-01T03:20:24;2.30;;;2.13;;
18499;SDS011;9379;52.134;11.576;2023-04-01T03:22:50;5.40;;;1.80;;
18499;SDS011;9379;52.134;11.576;2023-04-01T03:25:17;2.38;;;2.15;;
18499;SDS011;9379;52.134;11.576;2023-04-01T03:27:44;8.23;;;3.65;;
18499;SDS011;9379;52.134;11.576;2023-04-01T03:30:11;3.50;;;1.60;;
18499;SDS011;9379;52.134;11.576;2023-04-01T03:32:39;1.75;;;1.60;;
18499;SDS011;9379;52.134;11.576;2023-04-01T03:35:06;1.50;;;1.27;;
18499;SDS011;9379;52.134;11.576;2023-04-01T03:37:35;4.70;;;3.40;;
18499;SDS011;9379;52.134;11.576;2023-04-01T03:40:02;2.30;;;1.80;;
18499;SDS011;9379;52.134;11.576;2023-04-01T03:42:30;1.77;;;1.63;;
18499;SDS011;9379;52.134;11.576;2023-04-01T03:44:57;3.40;;;1.92;;
18499;SDS011;9379;52.134;11.576;2023-04-01T03:47:24;8.27;;;2.72;;
18499;SDS011;9379;52.134;11.576;2023-04-01T03:49:52;5.68;;;2.10;;
18499;SDS011;9379;52.134;11.576;2023-04-01T03:52:19;1.80;;;1.67;;
18499;SDS011;9379;52.134;11.576;2023-04-01T03:54:46;4.97;;;2.17;;
18499;SDS011;9379;52.134;11.576;2023-04-01T03:57:13;2.75;;;1.83;;
18499;SDS011;9379;52.134;11.576;2023-04-01T03:59:40;1.42;;;1.33;;
18499;SDS011;9379;52.134;11.576;2023-04-01T04:02:07;2.83;;;2.00;;
18499;SDS011;9379;52.134;11.576;2023-04-01T04:04:33;1.75;;;1.65;;
18499;SDS011;9379;52.134;11.576;2023-04-01T04:07:02;3.75;;;2.13;;
18499;SDS011;9379;52.134;11.576;2023-04-01T04:09:29;5.57;;;2.88;;
18499;SDS011;9379;52.134;11.576;2023-04-01T04:11:56;2.80;;;2.30;;
18499;SDS011;9379;52.134;11.576;2023-04-01T04:14:23;1.85;;;1.75;;
18499;SDS011;9379;52.134;11.576;2023-04-01T04:16:50;1.98;;;1.52;;
18499;SDS011;9379;52.134;11.576;2023-04-01T04:19:17;3.03;;;1.85;;
18499;SDS011;9379;52.134;11.576;2023-04-01T04:21:43;17.10;;;3.63;;
18499;SDS011;9379;52.134;11.576;2023-04-01T04:24:12;2.53;;;1.90;;
18499;SDS011;9379;52.134;11.576;2023-04-01T04:26:38;2.42;;;1.90;;
18499;SDS011;9379;52.134;11.576;2023-04-01T04:29:05;4.55;;;1.63;;
18499;SDS011;9379;52.134;11.576;2023-04-01T04:31:35;4.60;;;2.42;;
18499;SDS011;9379;52.134;11.576;2023-04-01T04:34:02;4.43;;;2.67;;
18499;SDS011;9379;52.134;11.576;2023-04-01T04:36:29;3.60;;;1.90;;
18499;SDS011;9379;52.134;11.576;2023-04-01T04:38:55;5.25;;;2.83;;
18499;SDS011;9379;52.134;11.576;2023-04-01T04:41:24;6.00;;;2.25;;
18499;SDS011;9379;52.134;11.576;2023-04-01T04:43:51;2.40;;;2.22;;
18499;SDS011;9379;52.134;11.576;2023-04-01T04:46:19;2.83;;;2.53;;
18499;SDS011;9379;52.134;11.576;2023-04-01T04:48:46;2.85;;;2.55;;
18499;SDS011;9379;52.134;11.576;2023-04-01T04:51:14;2.08;;;1.88;;
18499;SDS011;9379;52.134;11.576;2023-04-01T04:53:41;4.15;;;2.22;;
18499;SDS011;9379;52.134;11.576;2023-04-01T04:56:08;4.03;;;2.15;;
18499;SDS011;9379;52.134;11.576;2023-04-01T04:58:37;4.68;;;1.80;;
18499;SDS011;9379;52.134;11.576;2023-04-01T05:01:08;2.17;;;1.88;;
18499;SDS011;9379;52.134;11.576;2023-04-01T05:03:35;6.13;;;2.55;;
18499;SDS011;9379;52.134;11.576;2023-04-01T05:06:02;2.80;;;2.15;;
18499;SDS011;9379;52.134;11.576;2023-04-01T05:08:29;1.77;;;1.67;;
18499;SDS011;9379;52.134;11.576;2023-04-01T05:10:57;3.78;;;1.77;;
18499;SDS011;9379;52.134;11.576;2023-04-01T05:13:24;2.70;;;2.20;;
18499;SDS011;9379;52.134;11.576;2023-04-01T05:15:53;1.40;;;1.30;;
18499;SDS011;9379;52.134;11.576;2023-04-01T05:18:20;3.15;;;2.35;;
18499;SDS011;9379;52.134;11.576;2023-04-01T05:20:47;3.05;;;2.30;;
18499;SDS011;9379;52.134;11.576;2023-04-01T05:23:15;3.17;;;1.73;;
18499;SDS011;9379;52.134;11.576;2023-04-01T05:25:42;2.28;;;1.95;;
18499;SDS011;9379;52.134;11.576;2023-04-01T05:28:10;1.65;;;1.55;;
18499;SDS011;9379;52.134;11.576;2023-04-01T05:30:39;3.63;;;1.98;;
18499;SDS011;9379;52.134;11.576;2023-04-01T05:33:08;3.03;;;2.10;;
18499;SDS011;9379;52.134;11.576;2023-04-01T05:35:35;1.55;;;1.30;;
18499;SDS011;9379;52.134;11.576;2023-04-01T05:38:01;5.85;;;1.80;;
18499;SDS011;9379;52.134;11.576;2023-04-01T05:40:29;1.65;;;1.55;;
18499;SDS011;9379;52.134;11.576;2023-04-01T05:42:56;1.92;;;1.73;;
18499;SDS011;9379;52.134;11.576;2023-04-01T05:45:23;1.70;;;1.60;;
18499;SDS011;9379;52.134;11.576;2023-04-01T05:47:50;2.08;;;1.98;;
18499;SDS011;9379;52.134;11.576;2023-04-01T05:50:18;1.48;;;1.38;;
18499;SDS011;9379;52.134;11.576;2023-04-01T05:52:45;1.90;;;1.40;;
18499;SDS011;9379;52.134;11.576;2023-04-01T05:55:12;4.82;;;2.63;;
18499;SDS011;9379;52.134;11.576;2023-04-01T05:57:39;1.98;;;1.40;;
18499;SDS011;9379;52.134;11.576;2023-04-01T06:00:06;2.35;;;1.95;;
18499;SDS011;9379;52.134;11.576;2023-04-01T06:02:33;2.20;;;2.00;;
18499;SDS011;9379;52.134;11.576;2023-04-01T06:05:03;5.90;;;2.58;;
18499;SDS011;9379;52.134;11.576;2023-04-01T06:07:39;5.63;;;2.63;;
18499;SDS011;9379;52.134;11.576;2023-04-01T06:10:09;2.38;;;2.17;;
18499;SDS011;9379;52.134;11.576;2023-04-01T06:12:50;4.53;;;2.30;;
18499;SDS011;9379;52.134;11.576;2023-04-01T06:15:29;2.22;;;2.10;;
18499;SDS011;9379;52.134;11.576;2023-04-01T06:21:17;1.63;;;1.52;;
18499;SDS011;9379;52.134;11.576;2023-04-01T06:24:10;2.50;;;2.22;;
18499;SDS011;9379;52.134;11.576;2023-04-01T06:26:48;2.83;;;1.40;;
18499;SDS011;9379;52.134;11.576;2023-04-01T06:29:36;2.38;;;2.17;;
18499;SDS011;9379;52.134;11.576;2023-04-01T06:32:17;2.33;;;2.13;;
18499;SDS011;9379;52.134;11.576;2023-04-01T06:35:03;1.90;;;1.70;;
18499;SDS011;9379;52.134;11.576;2023-04-01T06:37:49;12.10;;;3.00;;
18499;SDS011;9379;52.134;11.576;2023-04-01T06:43:30;2.10;;;1.83;;
18499;SDS011;9379;52.134;11.576;2023-04-01T06:46:06;4.40;;;2.85;;
18499;SDS011;9379;52.134;11.576;2023-04-01T06:48:43;5.97;;;2.45;;
18499;SDS011;9379;52.134;11.576;2023-04-01T06:51:31;1.38;;;1.35;;
18499;SDS011;9379;52.134;11.576;2023-04-01T06:54:10;1.88;;;1.77;;
18499;SDS011;9379;52.134;11.576;2023-04-01T06:56:42;2.35;;;1.40;;
18499;SDS011;9379;52.134;11.576;2023-04-01T06:59:15;1.67;;;1.58;;
18499;SDS011;9379;52.134;11.576;2023-04-01T07:01:45;2.85;;;2.10;;
18499;SDS011;9379;52.134;11.576;2023-04-01T07:04:16;2.30;;;1.75;;
18499;SDS011;9379;52.134;11.576;2023-04-01T07:06:47;2.92;;;2.15;;
18499;SDS011;9379;52.134;11.576;2023-04-01T07:09:19;2.45;;;1.50;;
18499;SDS011;9379;52.134;11.576;2023-04-01T07:11:48;5.30;;;2.00;;
18499;SDS011;9379;52.134;11.576;2023-04-01T07:14:22;2.85;;;1.92;;
18499;SDS011;9379;52.134;11.576;2023-04-01T07:16:56;1.75;;;1.65;;
18499;SDS011;9379;52.134;11.576;2023-04-01T07:19:29;1.50;;;1.40;;
18499;SDS011;9379;52.134;11.576;2023-04-01T07:22:03;1.23;;;1.13;;
18499;SDS011;9379;52.134;11.576;2023-04-01T07:24:32;5.78;;;2.22;;
18499;SDS011;9379;52.134;11.576;2023-04-01T07:27:03;2.60;;;1.63;;
18499;SDS011;9379;52.134;11.576;2023-04-01T07:29:36;6.60;;;1.27;;
18499;SDS011;9379;52.134;11.576;2023-04-01T07:32:11;1.58;;;1.48;;
18499;SDS011;9379;52.134;11.576;2023-04-01T07:34:51;5.93;;;2.50;;
18499;SDS011;9379;52.134;11.576;2023-04-01T07:37:28;3.58;;;2.45;;
18499;SDS011;9379;52.134;11.576;2023-04-01T07:40:05;2.28;;;2.08;;
18499;SDS011;9379;52.134;11.576;2023-04-01T07:42:45;2.08;;;1.83;;
18499;SDS011;9379;52.134;11.576;2023-04-01T07:45:26;1.92;;;1.70;;
18499;SDS011;9379;52.134;11.576;2023-04-01T07:48:05;1.58;;;1.48;;
18499;SDS011;9379;52.134;11.576;2023-04-01T07:50:37;2.13;;;2.03;;
18499;SDS011;9379;52.134;11.576;2023-04-01T07:53:13;6.20;;;2.83;;
18499;SDS011;9379;52.134;11.576;2023-04-01T07:55:49;2.08;;;1.85;;
18499;SDS011;9379;52.134;11.576;2023-04-01T07:58:22;2.90;;;2.15;;
18499;SDS011;9379;52.134;11.576;2023-04-01T08:01:04;2.25;;;2.15;;
18499;SDS011;9379;52.134;11.576;2023-04-01T08:03:41;1.60;;;1.50;;
18499;SDS011;9379;52.134;11.576;2023-04-01T08:06:18;4.45;;;2.25;;
18499;SDS011;9379;52.134;11.576;2023-04-01T08:08:52;1.55;;;1.42;;
18499;SDS011;9379;52.134;11.576;2023-04-01T08:11:31;1.58;;;1.30;;
18499;SDS011;9379;52.134;11.576;2023-04-01T08:14:08;2.15;;;1.25;;
18499;SDS011;9379;52.134;11.576;2023-04-01T08:16:46;1.80;;;1.52;;
18499;SDS011;9379;52.134;11.576;2023-04-01T08:19:18;1.90;;;1.35;;
18499;SDS011;9379;52.134;11.576;2023-04-01T08:21:56;3.00;;;1.45;;
18499;SDS011;9379;52.134;11.576;2023-04-01T08:24:33;1.55;;;1.45;;
18499;SDS011;9379;52.134;11.576;2023-04-01T08:27:03;1.50;;;1.40;;
18499;SDS011;9379;52.134;11.576;2023-04-01T08:29:36;1.98;;;1.30;;
18499;SDS011;9379;52.134;11.576;2023-04-01T08:32:09;2.63;;;1.10;;
18499;SDS011;9379;52.134;11.576;2023-04-01T08:34:43;2.33;;;1.30;;
18499;SDS011;9379;52.134;11.576;2023-04-01T08:37:14;1.98;;;1.55;;
18499;SDS011;9379;52.134;11.576;2023-04-01T08:39:44;4.55;;;1.15;;
18499;SDS011;9379;52.134;11.576;2023-04-01T08:42:27;1.33;;;1.23;;
18499;SDS011;9379;52.134;11.576;2023-04-01T08:45:16;1.90;;;0.93;;
18499;SDS011;9379;52.134;11.576;2023-04-01T08:48:07;1.20;;;1.08;;
18499;SDS011;9379;52.134;11.576;2023-04-01T08:51:03;3.22;;;1.20;;
18499;SDS011;9379;52.134;11.576;2023-04-01T08:53:50;2.95;;;1.60;;
18499;SDS011;9379;52.134;11.576;2023-04-01T08:56:29;1.80;;;0.93;;
18499;SDS011;9379;52.134;11.576;2023-04-01T08:59:19;3.72;;;1.52;;
18499;SDS011;9379;52.134;11.576;2023-04-01T09:02:10;1.95;;;1.73;;
18499;SDS011;9379;52.134;11.576;2023-04-01T09:05:05;1.90;;;1.70;;
18499;SDS011;9379;52.134;11.576;2023-04-01T09:07:51;2.53;;;1.88;;
18499;SDS011;9379;52.134;11.576;2023-04-01T09:10:36;1.00;;;1.00;;
18499;SDS011;9379;52.134;11.576;2023-04-01T09:13:20;1.38;;;1.10;;
18499;SDS011;9379;52.134;11.576;2023-04-01T09:16:18;2.42;;;2.28;;
18499;SDS011;9379;52.134;11.576;2023-04-01T09:19:15;2.15;;;1.27;;
18499;SDS011;9379;52.134;11.576;2023-04-01T09:22:01;1.88;;;1.42;;
18499;SDS011;9379;52.134;11.576;2023-04-01T09:24:40;0.93;;;0.93;;
18499;SDS011;9379;52.134;11.576;2023-04-01T09:27:19;2.55;;;1.20;;
18499;SDS011;9379;52.134;11.576;2023-04-01T09:36:04;2.25;;;1.17;;
18499;SDS011;9379;52.134;11.576;2023-04-01T09:38:42;1.40;;;1.30;;
18499;SDS011;9379;52.134;11.576;2023-04-01T09:41:25;1.45;;;1.25;;
18499;SDS011;9379;52.134;11.576;2023-04-01T09:43:58;1.98;;;1.02;;
18499;SDS011;9379;52.134;11.576;2023-04-01T09:46:31;2.10;;;1.33;;
18499;SDS011;9379;52.134;11.576;2023-04-01T09:49:14;1.75;;;1.10;;
18499;SDS011;9379;52.134;11.576;2023-04-01T09:52:10;2.20;;;1.73;;
18499;SDS011;9379;52.134;11.576;2023-04-01T09:58:02;0.90;;;0.90;;
18499;SDS011;9379;52.134;11.576;2023-04-01T10:19:23;3.50;;;1.88;;
18499;SDS011;9379;52.134;11.576;2023-04-01T10:22:17;2.35;;;1.92;;
18499;SDS011;9379;52.134;11.576;2023-04-01T10:25:24;1.23;;;1.17;;
18499;SDS011;9379;52.134;11.576;2023-04-01T10:31:14;1.02;;;0.93;;
18499;SDS011;9379;52.134;11.576;2023-04-01T10:37:23;0.80;;;0.80;;
18499;SDS011;9379;52.134;11.576;2023-04-01T10:40:26;2.42;;;1.02;;
18499;SDS011;9379;52.134;11.576;2023-04-01T10:46:15;1.15;;;1.15;;
18499;SDS011;9379;52.134;11.576;2023-04-01T10:52:13;3.10;;;1.20;;
18499;SDS011;9379;52.134;11.576;2023-04-01T10:55:24;0.73;;;0.73;;
18499;SDS011;9379;52.134;11.576;2023-04-01T10:58:09;0.80;;;0.80;;
18499;SDS011;9379;52.134;11.576;2023-04-01T11:01:27;1.10;;;0.90;;
18499;SDS011;9379;52.134;11.576;2023-04-01T11:13:21;1.83;;;1.25;;
18499;SDS011;9379;52.134;11.576;2023-04-01T11:22:20;2.33;;;1.17;;
18499;SDS011;9379;52.134;11.576;2023-04-01T11:25:13;1.55;;;1.45;;
18499;SDS011;9379;52.134;11.576;2023-04-01T11:28:04;2.60;;;1.08;;
18499;SDS011;9379;52.134;11.576;2023-04-01T11:30:52;1.60;;;1.10;;
18499;SDS011;9379;52.134;11.576;2023-04-01T11:33:31;2.97;;;1.75;;
18499;SDS011;9379;52.134;11.576;2023-04-01T11:36:15;1.70;;;1.08;;
18499;SDS011;9379;52.134;11.576;2023-04-01T11:39:11;2.42;;;1.40;;
18499;SDS011;9379;52.134;11.576;2023-04-01T11:41:51;2.53;;;2.33;;
18499;SDS011;9379;52.134;11.576;2023-04-01T11:44:28;1.33;;;1.23;;
18499;SDS011;9379;52.134;11.576;2023-04-01T11:47:00;0.80;;;0.80;;
18499;SDS011;9379;52.134;11.576;2023-04-01T11:49:46;1.67;;;1.23;;
18499;SDS011;9379;52.134;11.576;2023-04-01T11:52:24;1.27;;;1.17;;
18499;SDS011;9379;52.134;11.576;2023-04-01T11:55:06;0.70;;;0.70;;
18499;SDS011;9379;52.134;11.576;2023-04-01T11:57:57;1.50;;;1.40;;
18499;SDS011;9379;52.134;11.576;2023-04-01T12:00:48;3.92;;;1.00;;
18499;SDS011;9379;52.134;11.576;2023-04-01T12:03:36;0.75;;;0.75;;
18499;SDS011;9379;52.134;11.576;2023-04-01T12:06:23;0.75;;;0.73;;
18499;SDS011;9379;52.134;11.576;2023-04-01T12:09:01;0.70;;;0.70;;
18499;SDS011;9379;52.134;11.576;2023-04-01T12:11:35;1.42;;;1.00;;
18499;SDS011;9379;52.134;11.576;2023-04-01T12:14:13;1.35;;;1.02;;
18499;SDS011;9379;52.134;11.576;2023-04-01T12:16:51;0.75;;;0.75;;
18499;SDS011;9379;52.134;11.576;2023-04-01T12:19:28;1.67;;;0.70;;
18499;SDS011;9379;52.134;11.576;2023-04-01T12:22:09;1.02;;;0.93;;
18499;SDS011;9379;52.134;11.576;2023-04-01T12:24:49;1.00;;;0.90;;
18499;SDS011;9379;52.134;11.576;2023-04-01T12:27:31;2.47;;;1.92;;
18499;SDS011;9379;52.134;11.576;2023-04-01T12:33:16;0.73;;;0.73;;
18499;SDS011;9379;52.134;11.576;2023-04-01T12:35:55;6.93;;;0.93;;
18499;SDS011;9379;52.134;11.576;2023-04-01T12:38:36;1.20;;;1.05;;
18499;SDS011;9379;52.134;11.576;2023-04-01T12:41:13;0.80;;;0.80;;
18499;SDS011;9379;52.134;11.576;2023-04-01T12:46:49;0.65;;;0.65;;
18499;SDS011;9379;52.134;11.576;2023-04-01T12:52:25;3.90;;;1.58;;
18499;SDS011;9379;52.134;11.576;2023-04-01T12:55:19;0.45;;;0.45;;
18499;SDS011;9379;52.134;11.576;2023-04-01T13:01:08;0.82;;;0.80;;
18499;SDS011;9379;52.134;11.576;2023-04-01T13:04:01;0.90;;;0.70;;
18499;SDS011;9379;52.134;11.576;2023-04-01T13:06:53;0.40;;;0.40;;
18499;SDS011;9379;52.134;11.576;2023-04-01T13:09:39;0.60;;;0.60;;
18499;SDS011;9379;52.134;11.576;2023-04-01T13:15:28;0.65;;;0.65;;
18499;SDS011;9379;52.134;11.576;2023-04-01T13:18:04;0.70;;;0.70;;
18499;SDS011;9379;52.134;11.576;2023-04-01T13:20:45;4.78;;;1.23;;
18499;SDS011;9379;52.134;11.576;2023-04-01T13:23:22;0.93;;;0.57;;
18499;SDS011;9379;52.134;11.576;2023-04-01T13:26:01;1.25;;;0.90;;
18499;SDS011;9379;52.134;11.576;2023-04-01T13:28:34;0.77;;;0.55;;
18499;SDS011;9379;52.134;11.576;2023-04-01T13:31:05;1.27;;;1.17;;
18499;SDS011;9379;52.134;11.576;2023-04-01T13:33:42;0.60;;;0.60;;
18499;SDS011;9379;52.134;11.576;2023-04-01T13:36:19;1.13;;;1.13;;
18499;SDS011;9379;52.134;11.576;2023-04-01T13:39:01;1.10;;;0.90;;
18499;SDS011;9379;52.134;11.576;2023-04-01T13:41:50;0.77;;;0.70;;
18499;SDS011;9379;52.134;11.576;2023-04-01T13:44:32;0.45;;;0.45;;
18499;SDS011;9379;52.134;11.576;2023-04-01T13:47:07;0.90;;;0.70;;
18499;SDS011;9379;52.134;11.576;2023-04-01T13:50:04;2.75;;;1.83;;
18499;SDS011;9379;52.134;11.576;2023-04-01T13:52:48;0.80;;;0.70;;
18499;SDS011;9379;52.134;11.576;2023-04-01T13:55:30;1.15;;;1.15;;
18499;SDS011;9379;52.134;11.576;2023-04-01T13:58:28;1.55;;;1.45;;
18499;SDS011;9379;52.134;11.576;2023-04-01T14:01:15;1.52;;;1.15;;
18499;SDS011;9379;52.134;11.576;2023-04-01T14:04:03;1.40;;;1.30;;
18499;SDS011;9379;52.134;11.576;2023-04-01T14:06:54;2.15;;;1.98;;
18499;SDS011;9379;52.134;11.576;2023-04-01T14:12:21;1.73;;;1.63;;
18499;SDS011;9379;52.134;11.576;2023-04-01T14:15:06;1.63;;;1.52;;
18499;SDS011;9379;52.134;11.576;2023-04-01T14:17:51;2.38;;;2.15;;
18499;SDS011;9379;52.134;11.576;2023-04-01T14:20:37;2.25;;;1.90;;
18499;SDS011;9379;52.134;11.576;2023-04-01T14:23:20;1.25;;;1.15;;
18499;SDS011;9379;52.134;11.576;2023-04-01T14:26:11;1.98;;;1.88;;
18499;SDS011;9379;52.134;11.576;2023-04-01T14:29:00;1.65;;;1.55;;
18499;SDS011;9379;52.134;11.576;2023-04-01T14:31:41;1.80;;;1.70;;
18499;SDS011;9379;52.134;11.576;2023-04-01T14:34:25;2.58;;;2.38;;
18499;SDS011;9379;52.134;11.576;2023-04-01T14:37:08;2.00;;;1.80;;
18499;SDS011;9379;52.134;11.576;2023-04-01T14:39:51;2.97;;;2.15;;
18499;SDS011;9379;52.134;11.576;2023-04-01T14:45:37;2.50;;;2.30;;
18499;SDS011;9379;52.134;11.576;2023-04-01T14:48:17;2.13;;;2.03;;
18499;SDS011;9379;52.134;11.576;2023-04-01T14:50:51;2.35;;;2.15;;
18499;SDS011;9379;52.134;11.576;2023-04-01T14:53:26;2.42;;;2.17;;
18499;SDS011;9379;52.134;11.576;2023-04-01T14:55:55;2.55;;;2.35;;
18499;SDS011;9379;52.134;11.576;2023-04-01T14:58:27;2.53;;;2.33;;
18499;SDS011;9379;52.134;11.576;2023-04-01T15:01:11;2.47;;;2.38;;
18499;SDS011;9379;52.134;11.576;2023-04-01T15:03:53;3.15;;;2.03;;
18499;SDS011;9379;52.134;11.576;2023-04-01T15:09:23;2.00;;;1.90;;
18499;SDS011;9379;52.134;11.576;2023-04-01T15:12:02;2.65;;;2.38;;
18499;SDS011;9379;52.134;11.576;2023-04-01T15:14:51;1.98;;;1.88;;
18499;SDS011;9379;52.134;11.576;2023-04-01T15:23:19;4.07;;;3.67;;
18499;SDS011;9379;52.134;11.576;2023-04-01T15:28:57;2.33;;;2.13;;
18499;SDS011;9379;52.134;11.576;2023-04-01T15:31:40;3.92;;;3.53;;
18499;SDS011;9379;52.134;11.576;2023-04-01T15:34:16;3.55;;;3.25;;
18499;SDS011;9379;52.134;11.576;2023-04-01T15:36:53;4.93;;;4.00;;
18499;SDS011;9379;52.134;11.576;2023-04-01T15:39:29;4.97;;;4.38;;
18499;SDS011;9379;52.134;11.576;2023-04-01T15:42:11;3.28;;;3.05;;
18499;SDS011;9379;52.134;11.576;2023-04-01T15:44:58;3.05;;;2.85;;
18499;SDS011;9379;52.134;11.576;2023-04-01T15:47:36;2.30;;;2.10;;
18499;SDS011;9379;52.134;11.576;2023-04-01T15:53:03;2.45;;;2.25;;
18499;SDS011;9379;52.134;11.576;2023-04-01T15:55:42;4.22;;;3.80;;
18499;SDS011;9379;52.134;11.576;2023-04-01T15:58:20;4.45;;;4.05;;
18499;SDS011;9379;52.134;11.576;2023-04-01T16:01:02;3.10;;;2.90;;
18499;SDS011;9379;52.134;11.576;2023-04-01T16:03:40;3.78;;;3.47;;
18499;SDS011;9379;52.134;11.576;2023-04-01T16:06:20;2.95;;;2.67;;
18499;SDS011;9379;52.134;11.576;2023-04-01T16:09:05;2.15;;;2.03;;
18499;SDS011;9379;52.134;11.576;2023-04-01T16:11:52;2.60;;;2.40;;
18499;SDS011;9379;52.134;11.576;2023-04-01T16:14:28;2.75;;;2.55;;
18499;SDS011;9379;52.134;11.576;2023-04-01T16:19:59;3.05;;;2.40;;
18499;SDS011;9379;52.134;11.576;2023-04-01T16:22:30;2.92;;;2.72;;
18499;SDS011;9379;52.134;11.576;2023-04-01T16:25:13;2.22;;;2.13;;
18499;SDS011;9379;52.134;11.576;2023-04-01T16:27:47;2.95;;;2.72;;
18499;SDS011;9379;52.134;11.576;2023-04-01T16:30:25;2.58;;;2.30;;
18499;SDS011;9379;52.134;11.576;2023-04-01T16:33:01;2.83;;;2.55;;
18499;SDS011;9379;52.134;11.576;2023-04-01T16:35:36;1.52;;;1.42;;
18499;SDS011;9379;52.134;11.576;2023-04-01T16:38:12;2.80;;;1.33;;
18499;SDS011;9379;52.134;11.576;2023-04-01T16:40:47;2.65;;;2.28;;
18499;SDS011;9379;52.134;11.576;2023-04-01T16:43:25;2.20;;;2.10;;
18499;SDS011;9379;52.134;11.576;2023-04-01T16:46:03;2.00;;;1.80;;
18499;SDS011;9379;52.134;11.576;2023-04-01T16:49:00;2.05;;;1.85;;
18499;SDS011;9379;52.134;11.576;2023-04-01T16:51:34;3.38;;;3.05;;
18499;SDS011;9379;52.134;11.576;2023-04-01T16:54:10;4.20;;;3.90;;
18499;SDS011;9379;52.134;11.576;2023-04-01T16:56:44;3.08;;;2.88;;
18499;SDS011;9379;52.134;11.576;2023-04-01T16:59:17;2.78;;;2.58;;
18499;SDS011;9379;52.134;11.576;2023-04-01T17:01:50;2.42;;;2.22;;
18499;SDS011;9379;52.134;11.576;2023-04-01T17:04:23;2.45;;;2.25;;
18499;SDS011;9379;52.134;11.576;2023-04-01T17:07:00;4.68;;;2.95;;
18499;SDS011;9379;52.134;11.576;2023-04-01T17:09:41;3.75;;;3.05;;
18499;SDS011;9379;52.134;11.576;2023-04-01T17:12:19;3.40;;;3.13;;
18499;SDS011;9379;52.134;11.576;2023-04-01T17:14:54;2.30;;;1.98;;
18499;SDS011;9379;52.134;11.576;2023-04-01T17:17:38;3.50;;;2.75;;
18499;SDS011;9379;52.134;11.576;2023-04-01T17:20:26;2.70;;;2.08;;
18499;SDS011;9379;52.134;11.576;2023-04-01T17:23:04;2.55;;;2.35;;